ADDS METAR Data INFO
IDs: Format: Raw Decoded Include TAF

Data at: 2250 UTC 22 Jun 2018

KDKK 222153Z AUTO 13011G15KT 10SM FEW040 OVC080 22/17 A2986 RMK AO2 RAE00 SLP110 P0000 T02170172
KDKK 222053Z AUTO 04004KT 10SM -RA OVC080 21/17 A2987 RMK AO2 RAB39 SLP111 P0000 60000 T02060172 56012
KDKK 221953Z AUTO 02006KT 10SM OVC100 21/17 A2987 RMK AO2 RAB33E46 SLP115 P0000 T02060167
KDKK 221853Z AUTO 05004KT 10SM BKN080 OVC100 19/17 A2988 RMK AO2 RAE29 SLP118 P0000 T01940167
KDKK 221753Z AUTO 02006KT 10SM -RA OVC100 19/16 A2990 RMK AO2 RAB03 SLP125 P0000 60000 T01940156 10211 20172 58004
KDKK 221653Z AUTO 02007KT 10SM BKN100 BKN120 20/14 A2991 RMK AO2 RAB16E33 SLP126 P0000 T02000139
KDKK 221553Z AUTO 35006KT 10SM CLR 21/13 A2991 RMK AO2 SLP128 T02060128
KDKK 221453Z AUTO 04007KT 10SM CLR 20/11 A2991 RMK AO2 SLP128 T02000111 50001
KDKK 221353Z AUTO 07007KT 10SM SCT090 SCT110 18/08 A2992 RMK AO2 SLP129 T01830083 $
KDKK 221253Z AUTO VRB03KT 10SM CLR 18/07 A2992 RMK AO2 SLP129 T01780067 $
KDKK 221153Z AUTO 08007KT 070V130 10SM CLR 17/06 A2991 RMK AO2 SLP126 T01720061 10172 20106 52006 $
KDKK 221053Z AUTO 06007KT 10SM CLR 14/06 A2990 RMK AO2 SLP125 T01440061 $
KDKK 220953Z AUTO 05008KT 10SM CLR 12/05 A2990 RMK AO2 SLP123 T01220050 $
KDKK 220853Z AUTO 04008KT 10SM CLR 12/04 A2989 RMK AO2 SLP120 T01220039 56007 $
KDKK 220753Z AUTO 04007KT 10SM CLR 11/06 A2989 RMK AO2 SLP121 T01110056 $
KDKK 220653Z AUTO 07006KT 10SM CLR 11/07 A2991 RMK AO2 SLP125 T01110067 $
KDKK 220553Z AUTO 05010KT 10SM CLR 12/07 A2991 RMK AO2 SLP128 T01170067 10211 20117 50001 $
KDKK 220453Z AUTO 04007KT 10SM CLR 13/08 A2992 RMK AO2 SLP130 T01280078 402330111 $
KDKK 220353Z AUTO 05008KT 10SM CLR 14/09 A2992 RMK AO2 SLP129 T01390089 $
KDKK 220253Z AUTO 06007KT 10SM CLR 16/09 A2991 RMK AO2 SLP127 T01610089 53010 $
KDKK 220153Z AUTO 05007KT 10SM CLR 17/09 A2989 RMK AO2 SLP119 T01720094 $
KDKK 220053Z AUTO 04007KT 10SM CLR 19/13 A2988 RMK AO2 SLP115 T01940133 $
KDKK 212353Z AUTO 04010KT 10SM CLR 21/13 A2988 RMK AO2 SLP116 T02110133 10233 20211 53002 $
KDKK 212253Z AUTO 03013KT 10SM CLR 22/13 A2987 RMK AO2 SLP114 T02170133 $
KDKK 212153Z AUTO 03013G20KT 10SM CLR 23/14 A2987 RMK AO2 SLP112 T02280144 $
KDKK 212053Z AUTO 02014KT 10SM CLR 23/14 A2987 RMK AO2 SLP114 T02330144 58005 $
KDKK 211953Z AUTO 02012KT 10SM CLR 23/15 A2988 RMK AO2 SLP117 T02330150 $
KDKK 211853Z AUTO 03012G20KT 10SM CLR 23/15 A2989 RMK AO2 SLP118 T02280150 $
KDKK 211753Z AUTO 03013KT 10SM CLR 22/15 A2989 RMK AO2 SLP119 T02170150 10217 20178 58003 $
KDKK 211653Z AUTO 36012KT 10SM CLR 21/14 A2990 RMK AO2 SLP123 T02110144 $
KDKK 211553Z AUTO 01011KT 10SM CLR 21/14 A2990 RMK AO2 SLP123 T02060144 $
KDKK 211453Z AUTO 01011KT 10SM CLR 21/15 A2990 RMK AO2 SLP122 T02060150 52008 $
KDKK 211353Z AUTO 02008KT 10SM CLR 21/16 A2989 RMK AO2 SLP119 T02060156
KDKK 211253Z AUTO 03009KT 10SM CLR 19/15 A2988 RMK AO2 SLP116 T01890150
KDKK 211153Z AUTO 00000KT 10SM CLR 17/15 A2987 RMK AO2 SLP114 70002 T01720150 10172 20111 51014
KDKK 211053Z AUTO 00000KT 10SM CLR 13/13 A2986 RMK AO2 SLP111 T01330128 $